Time;durP1;ratioP1;P1;durP2;ratioP2;P2;SDS_P1;SDS_P2;PMS_P1;PMS_P2;Temp;Humidity;BMP_temperature;BMP_pressure;BME280_temperature;BME280_humidity;BME280_pressure;Samples;Min_cycle;Max_cycle;Signal;HPM_P1;HPM_P2
2020/12/31 00:00:37;;;;;;;48.13;18.77;;;;;;;;;;4938657;29;20509;-82
2020/12/31 00:03:03;;;;;;;47.60;17.48;;;;;;;;;;4956849;28;20043;-82
2020/12/31 00:05:30;;;;;;;48.55;18.85;;;;;;;;;;4939724;28;20577;-82
2020/12/31 00:07:56;;;;;;;44.58;18.45;;;;;;;;;;4938266;29;20071;-82
2020/12/31 00:10:23;;;;;;;47.05;18.25;;;;;;;;;;4953066;29;20457;-82
2020/12/31 00:12:50;;;;;;;47.85;19.23;;;;;;;;;;4949147;29;20040;-82
2020/12/31 00:15:17;;;;;;;52.97;19.48;;;;;;;;;;4934921;29;20047;-82
2020/12/31 00:17:44;;;;;;;57.28;19.33;;;;;;;;;;4951721;28;20118;-82
2020/12/31 00:20:11;;;;;;;59.17;20.05;;;;;;;;;;4948894;29;20075;-82
2020/12/31 00:22:38;;;;;;;52.80;21.08;;;;;;;;;;4952584;29;20087;-82
2020/12/31 00:25:06;;;;;;;51.78;19.05;;;;;;;;;;4949323;29;20056;-82
2020/12/31 00:27:33;;;;;;;51.38;19.85;;;;;;;;;;4952543;29;20134;-83
2020/12/31 00:30:00;;;;;;;54.22;20.02;;;;;;;;;;4938927;29;20046;-82
2020/12/31 00:32:26;;;;;;;57.70;20.50;;;;;;;;;;4951181;29;20044;-83
2020/12/31 00:34:53;;;;;;;56.03;20.20;;;;;;;;;;4952869;29;20130;-83
2020/12/31 00:37:19;;;;;;;52.08;19.98;;;;;;;;;;4938468;29;20453;-83
2020/12/31 00:39:46;;;;;;;48.20;17.80;;;;;;;;;;4952408;29;20118;-83
2020/12/31 00:42:13;;;;;;;53.45;19.92;;;;;;;;;;4949842;29;20060;-83
2020/12/31 00:44:40;;;;;;;52.28;20.77;;;;;;;;;;4952683;29;20063;-83
2020/12/31 00:47:07;;;;;;;46.67;17.95;;;;;;;;;;4948401;29;20052;-83
2020/12/31 00:49:33;;;;;;;52.97;20.65;;;;;;;;;;4949890;29;20083;-83
2020/12/31 00:52:01;;;;;;;46.60;18.25;;;;;;;;;;4937439;29;20677;-82
2020/12/31 00:54:28;;;;;;;54.30;18.95;;;;;;;;;;4952337;29;20083;-83
2020/12/31 00:56:54;;;;;;;47.72;18.23;;;;;;;;;;4948860;29;20108;-82
2020/12/31 00:59:22;;;;;;;49.03;19.30;;;;;;;;;;4950009;29;20052;-83
2020/12/31 01:01:49;;;;;;;50.42;18.35;;;;;;;;;;4948783;29;20152;-83
2020/12/31 01:04:15;;;;;;;48.45;19.80;;;;;;;;;;4948888;29;20083;-83
2020/12/31 01:06:42;;;;;;;53.08;19.20;;;;;;;;;;4949480;29;20092;-83
2020/12/31 01:09:09;;;;;;;61.20;22.48;;;;;;;;;;4934060;29;20048;-82
2020/12/31 01:11:37;;;;;;;50.47;19.52;;;;;;;;;;4952004;28;20170;-82
2020/12/31 01:14:04;;;;;;;50.53;19.48;;;;;;;;;;4952514;28;20075;-83
2020/12/31 01:16:30;;;;;;;50.20;20.50;;;;;;;;;;4937735;29;20051;-82
2020/12/31 01:19:04;;;;;;;58.92;21.13;;;;;;;;;;4949105;29;20048;-83
2020/12/31 01:21:30;;;;;;;58.03;20.80;;;;;;;;;;4951021;29;20082;-82
2020/12/31 01:23:57;;;;;;;56.78;22.00;;;;;;;;;;4937639;29;20397;-83
2020/12/31 01:26:31;;;;;;;53.45;20.45;;;;;;;;;;4937971;29;20127;-83
2020/12/31 01:29:10;;;;;;;49.10;19.17;;;;;;;;;;4955043;28;20169;-82
2020/12/31 01:31:37;;;;;;;56.17;19.45;;;;;;;;;;4955520;29;20043;-82
2020/12/31 01:34:08;;;;;;;51.70;19.65;;;;;;;;;;4951098;29;20438;-83
2020/12/31 01:36:35;;;;;;;55.38;20.35;;;;;;;;;;4955864;29;20544;-82
2020/12/31 01:39:03;;;;;;;64.90;21.15;;;;;;;;;;4952606;28;20044;-82
2020/12/31 01:41:30;;;;;;;56.85;21.08;;;;;;;;;;4940024;29;20874;-82
2020/12/31 01:44:23;;;;;;;57.78;21.38;;;;;;;;;;4952801;29;20048;-82
2020/12/31 01:46:49;;;;;;;57.20;20.58;;;;;;;;;;4940073;29;20048;-83
2020/12/31 01:49:20;;;;;;;58.42;20.35;;;;;;;;;;4955486;29;20050;-82
2020/12/31 01:51:47;;;;;;;57.00;21.42;;;;;;;;;;4955962;29;20047;-82
2020/12/31 01:54:16;;;;;;;54.70;21.85;;;;;;;;;;4952799;29;20086;-82
2020/12/31 01:56:43;;;;;;;60.40;21.98;;;;;;;;;;4955983;29;20099;-83
2020/12/31 01:59:12;;;;;;;57.08;23.00;;;;;;;;;;4952422;29;20083;-83
2020/12/31 02:01:39;;;;;;;61.20;21.35;;;;;;;;;;4936527;29;20044;-82
2020/12/31 02:04:06;;;;;;;56.97;21.30;;;;;;;;;;4955574;28;20079;-82
2020/12/31 02:06:35;;;;;;;56.00;21.70;;;;;;;;;;4955389;29;20851;-82
2020/12/31 02:09:02;;;;;;;54.92;21.48;;;;;;;;;;4952809;29;20049;-83
2020/12/31 02:11:28;;;;;;;52.65;21.20;;;;;;;;;;4931330;29;20564;-82
2020/12/31 02:13:55;;;;;;;58.47;21.60;;;;;;;;;;4952974;28;20100;-82
2020/12/31 02:16:25;;;;;;;57.03;21.08;;;;;;;;;;4955679;28;20074;-82
2020/12/31 02:19:00;;;;;;;50.58;19.73;;;;;;;;;;4950841;29;20040;-81
2020/12/31 02:21:28;;;;;;;61.40;21.38;;;;;;;;;;4943030;29;20138;-81
2020/12/31 02:23:55;;;;;;;54.33;21.10;;;;;;;;;;4949384;29;20672;-82
2020/12/31 02:26:31;;;;;;;68.75;22.33;;;;;;;;;;4953203;29;20146;-83
2020/12/31 02:29:00;;;;;;;55.97;20.77;;;;;;;;;;4934808;29;20074;-82
2020/12/31 02:31:31;;;;;;;54.47;20.88;;;;;;;;;;4952596;29;20059;-82
2020/12/31 02:33:58;;;;;;;57.42;19.73;;;;;;;;;;4932550;29;20094;-82
2020/12/31 02:36:27;;;;;;;51.13;20.63;;;;;;;;;;4952591;29;20304;-82
2020/12/31 02:38:55;;;;;;;54.00;20.48;;;;;;;;;;4954047;29;20095;-82
2020/12/31 02:41:21;;;;;;;57.05;22.02;;;;;;;;;;4939206;29;20082;-81
2020/12/31 02:43:48;;;;;;;48.30;20.73;;;;;;;;;;4954070;29;20136;-82
2020/12/31 02:46:16;;;;;;;53.13;19.65;;;;;;;;;;4953335;29;20055;-82
2020/12/31 02:48:43;;;;;;;46.88;19.27;;;;;;;;;;4946073;29;20539;-82
2020/12/31 02:51:10;;;;;;;47.25;18.77;;;;;;;;;;4952219;29;20104;-83
2020/12/31 02:53:36;;;;;;;52.00;20.27;;;;;;;;;;4952918;29;20086;-83
2020/12/31 02:56:09;;;;;;;52.88;19.20;;;;;;;;;;4950896;29;20055;-83
2020/12/31 02:58:36;;;;;;;53.45;19.90;;;;;;;;;;4952665;29;20087;-82
2020/12/31 03:01:11;;;;;;;46.22;18.92;;;;;;;;;;4953122;28;20420;-82
2020/12/31 03:03:39;;;;;;;49.40;19.92;;;;;;;;;;4935693;29;20044;-82
2020/12/31 03:06:06;;;;;;;49.38;19.40;;;;;;;;;;4954049;29;20075;-82
2020/12/31 03:08:34;;;;;;;51.47;19.98;;;;;;;;;;4953746;29;20082;-82
2020/12/31 03:11:01;;;;;;;48.42;20.00;;;;;;;;;;4952012;28;20843;-82
2020/12/31 03:13:28;;;;;;;47.28;19.90;;;;;;;;;;4952601;29;20043;-82
2020/12/31 03:15:55;;;;;;;52.72;19.88;;;;;;;;;;4950492;28;20104;-83
2020/12/31 03:18:22;;;;;;;43.63;18.27;;;;;;;;;;4944750;29;20074;-82
2020/12/31 03:20:52;;;;;;;43.25;17.45;;;;;;;;;;4940173;29;20095;-82
2020/12/31 03:23:19;;;;;;;50.25;19.05;;;;;;;;;;4951652;29;20474;-82
2020/12/31 03:25:46;;;;;;;43.75;18.27;;;;;;;;;;4939907;29;20090;-83
2020/12/31 03:28:16;;;;;;;49.13;18.92;;;;;;;;;;4954580;29;20099;-82
2020/12/31 03:30:44;;;;;;;46.42;17.92;;;;;;;;;;4939405;29;20043;-82
2020/12/31 03:33:14;;;;;;;46.42;18.88;;;;;;;;;;4959309;28;20078;-82
2020/12/31 03:35:45;;;;;;;48.83;18.80;;;;;;;;;;4954323;28;20055;-83
2020/12/31 03:38:12;;;;;;;43.25;18.65;;;;;;;;;;4938885;29;20098;-82
2020/12/31 03:40:39;;;;;;;50.15;18.63;;;;;;;;;;4953677;29;20066;-82
2020/12/31 03:43:10;;;;;;;48.35;19.85;;;;;;;;;;4950518;29;20081;-83
2020/12/31 03:45:37;;;;;;;52.50;18.95;;;;;;;;;;4953001;29;20043;-82
2020/12/31 03:48:05;;;;;;;46.45;18.80;;;;;;;;;;4953516;29;20054;-82
2020/12/31 03:50:32;;;;;;;47.75;19.35;;;;;;;;;;4938213;29;20051;-81
2020/12/31 03:53:01;;;;;;;46.28;18.90;;;;;;;;;;4952779;29;20054;-82
2020/12/31 03:55:27;;;;;;;48.35;19.92;;;;;;;;;;4939170;29;20150;-82
2020/12/31 03:57:54;;;;;;;53.20;20.45;;;;;;;;;;4953718;28;20130;-82
2020/12/31 04:00:21;;;;;;;52.53;19.48;;;;;;;;;;4953449;29;20051;-82
2020/12/31 04:02:47;;;;;;;47.55;18.48;;;;;;;;;;4953090;29;20173;-81
2020/12/31 04:05:15;;;;;;;50.33;19.10;;;;;;;;;;4953244;28;20493;-81
2020/12/31 04:07:42;;;;;;;48.22;18.50;;;;;;;;;;4953970;29;20087;-82
2020/12/31 04:10:08;;;;;;;48.72;18.58;;;;;;;;;;4953047;29;20043;-82
2020/12/31 04:12:35;;;;;;;55.55;20.48;;;;;;;;;;4952979;29;20075;-81
2020/12/31 04:15:01;;;;;;;50.78;19.90;;;;;;;;;;4938076;29;20134;-81
2020/12/31 04:17:28;;;;;;;53.25;18.73;;;;;;;;;;4951584;29;20084;-82
2020/12/31 04:19:55;;;;;;;52.08;18.63;;;;;;;;;;4950146;29;20123;-82
2020/12/31 04:22:22;;;;;;;54.67;20.73;;;;;;;;;;4950328;29;20109;-82
2020/12/31 04:24:50;;;;;;;59.08;21.05;;;;;;;;;;4938141;29;20472;-81
2020/12/31 04:27:20;;;;;;;47.83;19.23;;;;;;;;;;4951651;29;20071;-81
2020/12/31 04:29:47;;;;;;;48.75;21.58;;;;;;;;;;4942378;29;20082;-81
2020/12/31 04:32:14;;;;;;;54.25;20.42;;;;;;;;;;4936978;29;20047;-81
2020/12/31 04:34:40;;;;;;;55.00;20.95;;;;;;;;;;4952523;28;20119;-81
2020/12/31 04:37:07;;;;;;;57.10;21.45;;;;;;;;;;4952578;29;20086;-82
2020/12/31 04:39:34;;;;;;;54.03;20.98;;;;;;;;;;4953149;29;20110;-82
2020/12/31 04:42:00;;;;;;;56.63;22.05;;;;;;;;;;4938348;29;20056;-82
2020/12/31 04:44:27;;;;;;;54.67;21.38;;;;;;;;;;4952897;28;20449;-81
2020/12/31 04:46:55;;;;;;;60.15;22.60;;;;;;;;;;4952425;28;20112;-82
2020/12/31 04:49:26;;;;;;;56.42;21.20;;;;;;;;;;4952418;29;20051;-82
2020/12/31 04:51:54;;;;;;;53.03;20.80;;;;;;;;;;4953084;29;20095;-82
2020/12/31 04:54:20;;;;;;;49.78;20.75;;;;;;;;;;4953062;29;20079;-82
2020/12/31 04:56:50;;;;;;;54.65;21.70;;;;;;;;;;4952757;29;20127;-81
2020/12/31 04:59:17;;;;;;;54.53;20.40;;;;;;;;;;4952623;29;20048;-82
2020/12/31 05:01:45;;;;;;;52.97;22.10;;;;;;;;;;4948461;29;20115;-81
2020/12/31 05:04:14;;;;;;;60.45;21.75;;;;;;;;;;4947582;29;20485;-82
2020/12/31 05:06:41;;;;;;;53.42;21.33;;;;;;;;;;4952352;29;20055;-82
2020/12/31 05:09:17;;;;;;;55.00;21.60;;;;;;;;;;4936726;29;20047;-83
2020/12/31 05:11:48;;;;;;;54.45;23.70;;;;;;;;;;4947726;29;20044;-82
2020/12/31 05:14:28;;;;;;;61.10;22.15;;;;;;;;;;4949082;29;20442;-82
2020/12/31 05:16:55;;;;;;;52.60;22.33;;;;;;;;;;4941689;29;20047;-83
2020/12/31 05:19:22;;;;;;;68.60;23.08;;;;;;;;;;4953450;29;20489;-83
2020/12/31 05:21:49;;;;;;;54.72;23.33;;;;;;;;;;4952893;29;20409;-84
2020/12/31 05:24:15;;;;;;;54.75;22.50;;;;;;;;;;4950146;29;20052;-83
2020/12/31 05:26:42;;;;;;;58.67;23.50;;;;;;;;;;4938705;29;20119;-83
2020/12/31 05:29:09;;;;;;;58.05;22.77;;;;;;;;;;4953184;29;20437;-83
2020/12/31 05:31:51;;;;;;;59.80;22.95;;;;;;;;;;4952951;28;20148;-83
2020/12/31 05:34:28;;;;;;;54.03;22.23;;;;;;;;;;4958955;28;20099;-84
2020/12/31 05:36:55;;;;;;;60.55;24.30;;;;;;;;;;4953021;29;20497;-83
2020/12/31 05:39:21;;;;;;;57.55;23.98;;;;;;;;;;4950887;28;20052;-84
2020/12/31 05:41:48;;;;;;;57.05;22.45;;;;;;;;;;4952367;29;20134;-83
2020/12/31 05:44:16;;;;;;;60.70;24.45;;;;;;;;;;4950068;28;20076;-84
2020/12/31 05:46:42;;;;;;;59.40;22.00;;;;;;;;;;4938108;29;20793;-84
2020/12/31 05:49:10;;;;;;;52.47;22.35;;;;;;;;;;4952352;29;20079;-84
2020/12/31 05:51:37;;;;;;;59.22;23.15;;;;;;;;;;4952135;29;20052;-83
2020/12/31 05:54:06;;;;;;;53.00;21.02;;;;;;;;;;4938313;29;20044;-84
2020/12/31 05:56:33;;;;;;;54.25;21.27;;;;;;;;;;4937551;29;20058;-84
2020/12/31 05:59:07;;;;;;;50.28;21.65;;;;;;;;;;4952882;29;20058;-84
2020/12/31 06:01:38;;;;;;;47.50;19.00;;;;;;;;;;4951341;29;20076;-83
2020/12/31 06:04:19;;;;;;;52.42;21.23;;;;;;;;;;4958937;28;20060;-83
2020/12/31 06:06:58;;;;;;;51.30;21.17;;;;;;;;;;4952573;29;20131;-83
2020/12/31 06:09:28;;;;;;;60.17;20.70;;;;;;;;;;4952709;29;20130;-83
2020/12/31 06:12:02;;;;;;;47.70;20.55;;;;;;;;;;4945612;29;20043;-83
2020/12/31 06:14:29;;;;;;;48.85;20.05;;;;;;;;;;4952877;28;20048;-83
2020/12/31 06:16:59;;;;;;;57.28;22.05;;;;;;;;;;4953161;29;20052;-83
2020/12/31 06:19:30;;;;;;;52.75;20.92;;;;;;;;;;4953332;29;20520;-83
2020/12/31 06:22:01;;;;;;;54.30;21.63;;;;;;;;;;4955836;29;20114;-83
2020/12/31 06:24:35;;;;;;;50.53;20.77;;;;;;;;;;4940976;29;20043;-83
2020/12/31 06:27:06;;;;;;;52.20;21.60;;;;;;;;;;4956176;29;20039;-84
2020/12/31 06:29:34;;;;;;;57.13;22.15;;;;;;;;;;4955841;29;20055;-83
2020/12/31 06:32:07;;;;;;;57.65;22.15;;;;;;;;;;4953149;28;20500;-83
2020/12/31 06:34:34;;;;;;;52.75;21.45;;;;;;;;;;4960703;28;20670;-83
2020/12/31 06:37:01;;;;;;;55.83;22.13;;;;;;;;;;4941348;29;20507;-84
2020/12/31 06:39:30;;;;;;;61.28;24.45;;;;;;;;;;4954180;29;20055;-84
2020/12/31 06:41:56;;;;;;;52.97;21.77;;;;;;;;;;4954812;29;20086;-84
2020/12/31 06:44:28;;;;;;;56.55;23.65;;;;;;;;;;4952700;28;20142;-84
2020/12/31 06:46:55;;;;;;;53.20;22.77;;;;;;;;;;4939549;29;20107;-84
2020/12/31 06:49:21;;;;;;;58.85;23.70;;;;;;;;;;4953024;28;20059;-84
2020/12/31 06:51:48;;;;;;;60.85;23.02;;;;;;;;;;4940318;29;20071;-85
2020/12/31 06:54:30;;;;;;;56.40;22.98;;;;;;;;;;4952309;29;20082;-83
2020/12/31 06:56:57;;;;;;;54.97;22.05;;;;;;;;;;4946724;29;20084;-83
2020/12/31 06:59:27;;;;;;;60.72;24.52;;;;;;;;;;4938662;29;20063;-83
2020/12/31 07:02:01;;;;;;;56.22;23.33;;;;;;;;;;4951564;29;20054;-83
2020/12/31 07:04:32;;;;;;;62.72;24.00;;;;;;;;;;4956194;28;20070;-82
2020/12/31 07:06:59;;;;;;;56.83;22.75;;;;;;;;;;4950813;29;20076;-82
2020/12/31 07:09:31;;;;;;;54.08;21.88;;;;;;;;;;4951578;29;20548;-82
2020/12/31 07:12:02;;;;;;;57.25;23.92;;;;;;;;;;4953875;29;20099;-82
2020/12/31 07:14:30;;;;;;;61.35;23.67;;;;;;;;;;4953421;29;20047;-83
2020/12/31 07:16:59;;;;;;;55.50;23.52;;;;;;;;;;4953652;29;20079;-83
2020/12/31 07:19:53;;;;;;;64.18;24.63;;;;;;;;;;4937824;29;20048;-82
2020/12/31 07:22:21;;;;;;;58.20;21.90;;;;;;;;;;4954513;28;20493;-83
2020/12/31 07:24:49;;;;;;;65.10;23.90;;;;;;;;;;4954889;29;20142;-82
2020/12/31 07:27:27;;;;;;;54.90;22.02;;;;;;;;;;4951090;28;20123;-82
2020/12/31 07:30:01;;;;;;;60.05;23.33;;;;;;;;;;4938407;29;20095;-83
2020/12/31 07:32:46;;;;;;;59.67;23.15;;;;;;;;;;4952179;29;20044;-82
2020/12/31 07:35:13;;;;;;;;;;;;;;;;;;4950365;29;20086;-82
2020/12/31 07:37:39;;;;;;;56.70;23.48;;;;;;;;;;4938730;29;19978;-81
2020/12/31 07:40:06;;;;;;;54.15;22.88;;;;;;;;;;4950233;29;20052;-83
2020/12/31 07:42:33;;;;;;;65.90;24.25;;;;;;;;;;4951441;29;20082;-83
2020/12/31 07:45:01;;;;;;;57.80;21.92;;;;;;;;;;4938714;29;20051;-83
2020/12/31 07:47:28;;;;;;;57.60;23.48;;;;;;;;;;4943544;29;20106;-84
2020/12/31 07:49:54;;;;;;;65.30;23.30;;;;;;;;;;4953837;29;20835;-84
2020/12/31 07:52:21;;;;;;;57.55;22.10;;;;;;;;;;4937254;29;20048;-83
2020/12/31 07:54:48;;;;;;;53.00;22.77;;;;;;;;;;4944860;28;20080;-83
2020/12/31 07:57:15;;;;;;;52.83;21.05;;;;;;;;;;4930976;29;20131;-83
2020/12/31 07:59:42;;;;;;;55.63;22.27;;;;;;;;;;4950016;29;20135;-82
2020/12/31 08:02:11;;;;;;;50.92;19.92;;;;;;;;;;4936231;29;20060;-81
2020/12/31 08:04:37;;;;;;;53.67;20.50;;;;;;;;;;4944185;29;20052;-83
2020/12/31 08:07:13;;;;;;;56.72;21.13;;;;;;;;;;4950852;29;20090;-83
2020/12/31 08:09:40;;;;;;;54.50;20.40;;;;;;;;;;4953103;29;20122;-83
2020/12/31 08:12:09;;;;;;;56.00;20.88;;;;;;;;;;4949742;28;20187;-83
2020/12/31 08:14:43;;;;;;;62.97;21.25;;;;;;;;;;4952162;29;20048;-83
2020/12/31 08:17:10;;;;;;;52.03;19.48;;;;;;;;;;4952470;29;20043;-84
2020/12/31 08:19:40;;;;;;;51.13;20.02;;;;;;;;;;4938077;29;20102;-81
2020/12/31 08:22:15;;;;;;;48.75;19.25;;;;;;;;;;4948706;29;20409;-84
2020/12/31 08:24:42;;;;;;;;;;;;;;;;;;4953070;29;20047;-83
2020/12/31 08:27:17;;;;;;;51.30;18.35;;;;;;;;;;4955843;28;19926;-81
2020/12/31 08:29:44;;;;;;;51.42;18.80;;;;;;;;;;4959885;28;20047;-79
2020/12/31 08:32:14;;;;;;;50.63;19.00;;;;;;;;;;4950774;28;20051;-84
2020/12/31 08:34:41;;;;;;;47.00;19.25;;;;;;;;;;4957221;28;20524;-82
2020/12/31 08:37:15;;;;;;;41.83;18.27;;;;;;;;;;4936593;29;20099;-88
2020/12/31 08:39:42;;;;;;;40.53;17.10;;;;;;;;;;4955439;29;20071;-86
2020/12/31 08:42:12;;;;;;;36.17;15.85;;;;;;;;;;4954485;29;20067;-87
2020/12/31 08:44:43;;;;;;;39.05;15.38;;;;;;;;;;4955723;28;20055;-87
2020/12/31 08:47:31;;;;;;;37.03;16.08;;;;;;;;;;4951939;29;20040;-87
2020/12/31 08:50:01;;;;;;;36.92;14.77;;;;;;;;;;4951704;28;20062;-87
2020/12/31 08:52:29;;;;;;;39.47;15.68;;;;;;;;;;4954685;29;20126;-84
2020/12/31 08:55:05;;;;;;;38.80;15.32;;;;;;;;;;4956017;28;20440;-89
2020/12/31 08:57:32;;;;;;;37.13;16.38;;;;;;;;;;4953830;29;20055;-84
2020/12/31 09:00:00;;;;;;;36.67;13.77;;;;;;;;;;4948483;28;20482;-83
2020/12/31 09:02:54;;;;;;;34.30;14.32;;;;;;;;;;4950783;29;20059;-87
2020/12/31 09:05:25;;;;;;;33.00;13.35;;;;;;;;;;4958136;28;20048;-86
2020/12/31 09:08:06;;;;;;;32.75;12.52;;;;;;;;;;4948293;29;20040;-84
2020/12/31 09:10:41;;;;;;;27.58;12.00;;;;;;;;;;4936719;29;20048;-83
2020/12/31 09:13:17;;;;;;;29.17;12.50;;;;;;;;;;4952747;29;20067;-91
2020/12/31 09:15:44;;;;;;;36.08;12.63;;;;;;;;;;4950750;29;20733;-85
2020/12/31 09:18:19;;;;;;;28.88;12.13;;;;;;;;;;4950908;28;20052;-84
2020/12/31 09:20:46;;;;;;;30.55;13.07;;;;;;;;;;4946476;29;20056;-84
2020/12/31 09:23:13;;;;;;;31.65;12.93;;;;;;;;;;4944673;29;20048;-83
2020/12/31 09:25:58;;;;;;;31.02;12.75;;;;;;;;;;4946872;29;20056;-84
2020/12/31 09:28:26;;;;;;;27.50;12.15;;;;;;;;;;4933036;29;20079;-84
2020/12/31 09:30:55;;;;;;;31.05;12.30;;;;;;;;;;4947124;29;20082;-84
2020/12/31 09:33:23;;;;;;;25.70;11.63;;;;;;;;;;4954464;28;20135;-83
2020/12/31 09:35:50;;;;;;;24.33;11.45;;;;;;;;;;4951703;29;20086;-84
2020/12/31 09:38:19;;;;;;;27.45;11.20;;;;;;;;;;4937168;29;20119;-84
2020/12/31 09:40:46;;;;;;;24.13;11.75;;;;;;;;;;4943896;29;20056;-83
2020/12/31 09:43:13;;;;;;;25.33;11.85;;;;;;;;;;4951205;29;20047;-83
2020/12/31 09:45:42;;;;;;;26.77;11.15;;;;;;;;;;4936554;29;20840;-84
2020/12/31 09:48:08;;;;;;;26.55;11.40;;;;;;;;;;4936199;29;20048;-83
2020/12/31 09:50:35;;;;;;;24.15;10.63;;;;;;;;;;4953258;28;20075;-82
2020/12/31 09:53:02;;;;;;;27.92;10.27;;;;;;;;;;4938959;29;20051;-82
2020/12/31 09:55:42;;;;;;;23.50;11.30;;;;;;;;;;4950692;29;20055;-82
2020/12/31 09:58:09;;;;;;;28.70;10.55;;;;;;;;;;4953780;29;20044;-83
2020/12/31 10:00:36;;;;;;;24.73;11.02;;;;;;;;;;4953932;28;20138;-83
2020/12/31 10:03:03;;;;;;;22.30;9.98;;;;;;;;;;4943180;28;20047;-83
2020/12/31 10:05:30;;;;;;;22.30;9.15;;;;;;;;;;4956519;28;20062;-78
2020/12/31 10:07:57;;;;;;;26.45;10.00;;;;;;;;;;4952528;29;20099;-84
2020/12/31 10:10:26;;;;;;;23.17;10.23;;;;;;;;;;4952620;29;20047;-84
2020/12/31 10:12:52;;;;;;;24.15;10.63;;;;;;;;;;4955838;28;20059;-83
2020/12/31 10:15:20;;;;;;;23.02;9.82;;;;;;;;;;4954373;28;20044;-82
2020/12/31 10:17:47;;;;;;;20.17;10.15;;;;;;;;;;4951529;29;20087;-80
2020/12/31 10:20:13;;;;;;;21.38;9.80;;;;;;;;;;4935303;29;20048;-81
2020/12/31 10:22:44;;;;;;;21.83;9.60;;;;;;;;;;4953828;29;20162;-84
2020/12/31 10:25:11;;;;;;;19.48;9.10;;;;;;;;;;4940303;29;20086;-82
2020/12/31 10:27:37;;;;;;;20.92;8.68;;;;;;;;;;4939671;29;20495;-83
2020/12/31 10:30:08;;;;;;;25.38;9.45;;;;;;;;;;4955278;29;20047;-81
2020/12/31 10:32:35;;;;;;;18.83;9.32;;;;;;;;;;4937099;29;20488;-81
2020/12/31 10:35:02;;;;;;;22.30;10.13;;;;;;;;;;4959439;28;20043;-81
2020/12/31 10:37:33;;;;;;;22.55;9.10;;;;;;;;;;4951838;28;20107;-81
2020/12/31 10:39:59;;;;;;;19.70;9.07;;;;;;;;;;4938862;29;20048;-80
2020/12/31 10:42:27;;;;;;;18.15;8.65;;;;;;;;;;4953480;29;20040;-82
2020/12/31 10:44:54;;;;;;;21.95;8.57;;;;;;;;;;4950360;28;20044;-82
2020/12/31 10:47:20;;;;;;;20.17;8.88;;;;;;;;;;4951210;29;20094;-82
2020/12/31 10:49:47;;;;;;;19.40;9.35;;;;;;;;;;4952978;29;20835;-81
2020/12/31 10:52:15;;;;;;;16.65;8.35;;;;;;;;;;4939587;29;20052;-81
2020/12/31 10:54:43;;;;;;;17.70;8.25;;;;;;;;;;4953628;29;20067;-82
2020/12/31 10:57:11;;;;;;;17.00;9.07;;;;;;;;;;4951260;28;20581;-81
2020/12/31 10:59:37;;;;;;;28.88;8.77;;;;;;;;;;4948758;29;20080;-81
2020/12/31 11:02:04;;;;;;;17.25;8.43;;;;;;;;;;4943737;29;20051;-80
2020/12/31 11:04:31;;;;;;;17.85;8.88;;;;;;;;;;4935059;29;20088;-81
2020/12/31 11:06:58;;;;;;;21.73;9.57;;;;;;;;;;4938834;29;20143;-81
2020/12/31 11:09:24;;;;;;;15.90;8.15;;;;;;;;;;4938316;29;20119;-81
2020/12/31 11:11:51;;;;;;;22.30;8.70;;;;;;;;;;4948464;28;20040;-81
2020/12/31 11:14:18;;;;;;;18.20;9.20;;;;;;;;;;4949553;29;20039;-82
2020/12/31 11:16:51;;;;;;;17.38;7.80;;;;;;;;;;4953045;29;20056;-81
2020/12/31 11:19:17;;;;;;;20.67;8.73;;;;;;;;;;4953665;29;20090;-80
2020/12/31 11:21:44;;;;;;;18.25;8.52;;;;;;;;;;4952179;28;20134;-79
2020/12/31 11:24:13;;;;;;;16.17;8.30;;;;;;;;;;4948785;28;20047;-80
2020/12/31 11:26:50;;;;;;;18.58;9.00;;;;;;;;;;4951153;29;20314;-80
2020/12/31 11:29:18;;;;;;;18.98;8.18;;;;;;;;;;4951178;29;20474;-80
2020/12/31 11:31:46;;;;;;;20.00;9.00;;;;;;;;;;4931031;29;20086;-82
2020/12/31 11:34:25;;;;;;;14.52;7.93;;;;;;;;;;4945700;28;20052;-80
2020/12/31 11:36:52;;;;;;;18.95;8.70;;;;;;;;;;4951935;29;20142;-80
2020/12/31 11:39:19;;;;;;;16.58;7.72;;;;;;;;;;4951339;29;20721;-80
2020/12/31 11:41:45;;;;;;;19.40;7.90;;;;;;;;;;4946589;28;20055;-80
2020/12/31 11:44:12;;;;;;;17.38;8.02;;;;;;;;;;4946976;29;20474;-79
2020/12/31 11:46:43;;;;;;;15.55;7.30;;;;;;;;;;4951059;29;20131;-80
2020/12/31 11:49:09;;;;;;;17.75;8.65;;;;;;;;;;4952780;29;20533;-81
2020/12/31 11:51:36;;;;;;;120.18;24.10;;;;;;;;;;4952896;29;20083;-83
2020/12/31 11:54:03;;;;;;;18.88;7.70;;;;;;;;;;4953884;29;20056;-83
2020/12/31 11:56:30;;;;;;;14.00;7.32;;;;;;;;;;4953622;28;20048;-92
2020/12/31 11:58:56;;;;;;;14.93;6.82;;;;;;;;;;4944576;29;20047;-96
2020/12/31 12:01:23;;;;;;;20.27;7.50;;;;;;;;;;4959040;29;20115;-91
2020/12/31 12:03:50;;;;;;;19.20;7.90;;;;;;;;;;4954531;28;20135;-87
2020/12/31 12:06:22;;;;;;;15.13;7.72;;;;;;;;;;4940841;29;20131;-87
2020/12/31 12:08:57;;;;;;;13.70;7.70;;;;;;;;;;4939061;29;20047;-83
2020/12/31 12:12:11;;;;;;;15.20;7.15;;;;;;;;;;4941322;29;20048;-84
2020/12/31 12:14:41;;;;;;;16.73;7.95;;;;;;;;;;4953687;29;20080;-87
2020/12/31 12:17:08;;;;;;;14.05;7.35;;;;;;;;;;4956725;29;20075;-85
2020/12/31 12:19:56;;;;;;;14.05;6.85;;;;;;;;;;4956605;29;20062;-90
2020/12/31 12:22:59;;;;;;;;;;;;;;;;;;;;;
2020/12/31 12:26:11;;;;;;;13.95;7.03;;;;;;;;;;4944039;28;20126;-90
2020/12/31 12:29:06;;;;;;;20.27;7.75;;;;;;;;;;4955223;29;20715;-88
2020/12/31 12:31:45;;;;;;;13.70;7.60;;;;;;;;;;4955387;29;20052;-88
2020/12/31 12:34:44;;;;;;;13.50;6.85;;;;;;;;;;4955846;28;20068;-88
2020/12/31 12:40:09;;;;;;;17.90;7.50;;;;;;;;;;4963457;28;20496;-85
2020/12/31 12:42:36;;;;;;;16.60;8.07;;;;;;;;;;4975673;28;20054;-86
2020/12/31 12:45:16;;;;;;;15.30;8.63;;;;;;;;;;4960241;28;20110;-91
2020/12/31 12:47:55;;;;;;;16.25;8.23;;;;;;;;;;4962201;28;20079;-91
2020/12/31 12:51:04;;;;;;;14.43;7.22;;;;;;;;;;4961026;28;20448;-90
2020/12/31 12:57:40;;;;;;;13.30;6.43;;;;;;;;;;4922598;29;20106;-87
2020/12/31 13:00:50;;;;;;;17.92;9.40;;;;;;;;;;4843009;29;20045;-87
2020/12/31 13:03:48;;;;;;;18.48;8.60;;;;;;;;;;4756983;30;20511;-94
2020/12/31 13:06:50;;;;;;;17.65;8.27;;;;;;;;;;4821016;29;20046;-85
2020/12/31 13:13:14;;;;;;;16.20;8.25;;;;;;;;;;4827085;29;20058;-87
2020/12/31 13:15:43;;;;;;;13.45;6.35;;;;;;;;;;4858568;29;20057;-86
2020/12/31 13:18:46;;;;;;;15.00;7.80;;;;;;;;;;4854227;29;20061;-93
2020/12/31 13:21:59;;;;;;;;;;;;;;;;;;;;;
2020/12/31 13:24:52;;;;;;;16.58;6.90;;;;;;;;;;4875228;29;20056;-88
2020/12/31 13:27:19;;;;;;;13.52;7.40;;;;;;;;;;4907086;29;20056;-85
2020/12/31 13:30:03;;;;;;;15.45;7.32;;;;;;;;;;4907872;29;20835;-84
2020/12/31 13:32:35;;;;;;;16.42;6.95;;;;;;;;;;4906320;29;20044;-83
2020/12/31 13:35:07;;;;;;;16.42;7.25;;;;;;;;;;4913607;29;20325;-87
2020/12/31 13:37:57;;;;;;;17.80;7.80;;;;;;;;;;4860443;29;20053;-93
2020/12/31 13:40:36;;;;;;;13.93;7.05;;;;;;;;;;4872752;29;20073;-96
2020/12/31 13:43:04;;;;;;;16.80;7.68;;;;;;;;;;4872641;29;20105;-91
2020/12/31 13:45:38;;;;;;;17.27;7.85;;;;;;;;;;4873851;29;20075;-93
2020/12/31 13:48:08;;;;;;;16.67;7.57;;;;;;;;;;4873899;29;20045;-92
2020/12/31 13:50:51;;;;;;;16.67;8.40;;;;;;;;;;4874754;29;20156;-92
2020/12/31 13:53:38;;;;;;;16.77;7.47;;;;;;;;;;4871088;29;20140;-90
2020/12/31 13:56:06;;;;;;;18.50;8.02;;;;;;;;;;4967740;28;20129;-90
2020/12/31 13:59:09;;;;;;;;;;;;;;;;;;;;;
2020/12/31 14:05:16;;;;;;;20.98;8.85;;;;;;;;;;4908496;29;20120;-86
2020/12/31 14:07:48;;;;;;;18.98;8.73;;;;;;;;;;4920016;29;20056;-88
2020/12/31 14:10:59;;;;;;;;;;;;;;;;;;;;;
2020/12/31 14:14:11;;;;;;;18.15;8.52;;;;;;;;;;4860635;29;20053;-88
2020/12/31 14:17:00;;;;;;;20.52;9.20;;;;;;;;;;4874969;29;20529;-87
2020/12/31 14:19:44;;;;;;;17.02;8.80;;;;;;;;;;4906478;29;20056;-86
2020/12/31 14:22:23;;;;;;;19.75;8.98;;;;;;;;;;4900678;29;20065;-88
2020/12/31 14:24:53;;;;;;;19.30;9.45;;;;;;;;;;4899980;29;20048;-87
2020/12/31 14:27:39;;;;;;;19.70;8.07;;;;;;;;;;4906724;29;20060;-90
2020/12/31 14:30:32;;;;;;;20.92;9.32;;;;;;;;;;4913380;28;20142;-88
2020/12/31 14:33:27;;;;;;;15.45;8.15;;;;;;;;;;4958736;28;20051;-86
2020/12/31 14:35:56;;;;;;;21.50;8.25;;;;;;;;;;4960258;28;20039;-84
2020/12/31 14:38:23;;;;;;;78.65;11.43;;;;;;;;;;4966762;28;20466;-86
2020/12/31 14:40:51;;;;;;;24.65;9.18;;;;;;;;;;4953837;28;20068;-88
2020/12/31 14:43:21;;;;;;;21.65;9.85;;;;;;;;;;4956494;28;20053;-85
2020/12/31 14:45:50;;;;;;;22.55;10.20;;;;;;;;;;4964145;28;20045;-86
2020/12/31 14:48:30;;;;;;;23.25;10.13;;;;;;;;;;4972105;28;20373;-87
2020/12/31 14:51:17;;;;;;;20.30;9.02;;;;;;;;;;4955532;28;20047;-88
2020/12/31 14:53:50;;;;;;;21.17;10.10;;;;;;;;;;4961103;28;20047;-86
2020/12/31 14:56:20;;;;;;;20.52;9.32;;;;;;;;;;4970390;28;20128;-86
2020/12/31 14:58:50;;;;;;;22.50;9.93;;;;;;;;;;4971233;28;20055;-85
2020/12/31 15:01:20;;;;;;;20.65;8.95;;;;;;;;;;4956746;28;20102;-84
2020/12/31 15:03:49;;;;;;;20.15;8.43;;;;;;;;;;4969602;28;20051;-86